createdAt,value
2022-09-23T00:00:59.763Z,4.88
2022-09-23T00:03:28.683Z,2.38
2022-09-23T00:06:00.384Z,2.78
2022-09-23T00:08:27.159Z,3.83
2022-09-23T00:10:53.787Z,2.17
2022-09-23T00:13:20.153Z,4.25
2022-09-23T00:15:46.940Z,3.75
2022-09-23T00:18:13.461Z,3.22
2022-09-23T00:20:40.439Z,3.67
2022-09-23T00:23:07.066Z,2.75
2022-09-23T00:25:33.759Z,3.85
2022-09-23T00:28:00.401Z,3.90
2022-09-23T00:30:27.363Z,3.10
2022-09-23T00:32:53.828Z,2.07
2022-09-23T00:35:20.389Z,4.10
2022-09-23T00:37:46.957Z,9.23
2022-09-23T00:40:13.599Z,2.80
2022-09-23T00:42:48.797Z,5.38
2022-09-23T00:45:16.581Z,4.27
2022-09-23T00:47:51.211Z,3.20
2022-09-23T00:50:30.348Z,5.03
2022-09-23T00:52:59.431Z,3.60
2022-09-23T00:55:30.315Z,3.00
2022-09-23T00:57:59.372Z,2.60
2022-09-23T01:00:25.926Z,4.18
2022-09-23T01:02:52.514Z,6.53
2022-09-23T01:05:19.163Z,4.57
2022-09-23T01:07:46.261Z,2.80
2022-09-23T01:10:16.363Z,2.63
2022-09-23T01:13:10.537Z,2.28
2022-09-23T01:15:54.371Z,5.53
2022-09-23T01:18:46.972Z,3.63
2022-09-23T01:21:39.687Z,2.72
2022-09-23T01:24:30.378Z,2.90
2022-09-23T01:27:10.501Z,7.85
2022-09-23T01:29:54.214Z,4.65
2022-09-23T01:32:42.377Z,4.45
2022-09-23T01:35:25.704Z,3.25
2022-09-23T01:38:16.989Z,4.37
2022-09-23T01:40:56.220Z,4.30
2022-09-23T01:43:35.937Z,8.27
2022-09-23T01:46:11.091Z,5.78
2022-09-23T01:48:51.273Z,4.65
2022-09-23T01:51:25.936Z,3.27
2022-09-23T01:54:08.508Z,4.53
2022-09-23T01:56:50.110Z,3.25
2022-09-23T01:59:51.965Z,5.10
2022-09-23T02:02:42.169Z,5.25
2022-09-23T02:05:38.191Z,2.97
2022-09-23T02:08:13.779Z,2.97
2022-09-23T02:10:49.500Z,3.78
2022-09-23T02:13:42.858Z,4.97
2022-09-23T02:16:15.639Z,3.72
2022-09-23T02:19:05.126Z,3.30
2022-09-23T02:21:36.103Z,3.50
2022-09-23T02:24:13.796Z,3.67
2022-09-23T02:26:43.931Z,6.70
2022-09-23T02:29:19.909Z,3.30
2022-09-23T02:32:13.756Z,4.67
2022-09-23T02:34:55.246Z,6.95
2022-09-23T02:37:34.840Z,4.30
2022-09-23T02:40:14.274Z,3.38
2022-09-23T02:43:10.800Z,6.03
2022-09-23T02:45:39.026Z,3.83
2022-09-23T02:48:09.760Z,5.78
2022-09-23T02:50:37.501Z,3.80
2022-09-23T02:53:04.669Z,6.00
2022-09-23T02:55:32.295Z,3.92
2022-09-23T02:58:01.567Z,4.23
2022-09-23T03:00:54.016Z,3.55
2022-09-23T03:03:39.371Z,3.88
2022-09-23T03:06:21.816Z,2.88
2022-09-23T03:08:54.857Z,3.10
2022-09-23T03:11:21.767Z,4.23
2022-09-23T03:14:17.075Z,3.17
2022-09-23T03:16:58.390Z,3.63
2022-09-23T03:19:24.703Z,2.90
2022-09-23T03:22:01.223Z,4.13
2022-09-23T03:24:34.719Z,4.10
2022-09-23T03:27:05.454Z,5.03
2022-09-23T03:29:36.656Z,4.05
2022-09-23T03:32:05.115Z,4.75
2022-09-23T03:34:36.036Z,4.47
2022-09-23T03:37:27.094Z,4.27
2022-09-23T03:40:01.831Z,4.22
2022-09-23T03:42:31.559Z,2.67
2022-09-23T03:44:58.867Z,3.05
2022-09-23T03:47:27.134Z,5.05
2022-09-23T03:49:54.051Z,2.63
2022-09-23T03:52:25.378Z,2.90
2022-09-23T03:54:52.262Z,3.95
2022-09-23T03:57:22.167Z,7.43
2022-09-23T03:59:50.695Z,5.00
2022-09-23T04:02:18.891Z,3.90
2022-09-23T04:04:45.376Z,3.35
2022-09-23T04:07:12.750Z,2.88
2022-09-23T04:09:39.620Z,3.63
2022-09-23T04:12:06.684Z,3.17
2022-09-23T04:14:33.280Z,3.70
2022-09-23T04:16:59.783Z,2.90
2022-09-23T04:19:26.156Z,3.40
2022-09-23T04:21:52.690Z,3.20
2022-09-23T04:24:19.165Z,3.08
2022-09-23T04:26:45.715Z,6.30
2022-09-23T04:29:12.149Z,2.90
2022-09-23T04:31:38.717Z,3.13
2022-09-23T04:34:05.268Z,4.03
2022-09-23T04:36:31.843Z,4.32
2022-09-23T04:38:58.363Z,2.90
2022-09-23T04:41:24.780Z,4.82
2022-09-23T04:43:51.176Z,3.13
2022-09-23T04:46:17.885Z,2.60
2022-09-23T04:48:44.530Z,4.72
2022-09-23T04:51:16.905Z,2.03
2022-09-23T04:53:45.605Z,3.80
2022-09-23T04:56:15.179Z,3.28
2022-09-23T04:58:42.379Z,2.72
2022-09-23T05:01:10.362Z,3.40
2022-09-23T05:03:37.626Z,3.23
2022-09-23T05:06:04.868Z,2.35
2022-09-23T05:08:31.456Z,3.28
2022-09-23T05:10:59.461Z,4.15
2022-09-23T05:13:26.256Z,2.95
2022-09-23T05:16:08.374Z,2.83
2022-09-23T05:18:36.246Z,6.93
2022-09-23T05:21:03.432Z,3.00
2022-09-23T05:23:30.649Z,3.00
2022-09-23T05:26:02.320Z,5.90
2022-09-23T05:28:32.492Z,3.80
2022-09-23T05:31:20.637Z,2.92
2022-09-23T05:33:52.993Z,2.92
2022-09-23T05:36:21.430Z,5.53
2022-09-23T05:38:50.140Z,3.70
2022-09-23T05:41:18.556Z,5.53
2022-09-23T05:43:45.281Z,3.53
2022-09-23T05:46:14.628Z,4.03
2022-09-23T05:48:42.384Z,4.05
2022-09-23T05:51:14.085Z,4.63
2022-09-23T05:53:41.605Z,5.30
2022-09-23T05:56:08.179Z,4.47
2022-09-23T05:58:35.619Z,3.58
2022-09-23T06:01:09.270Z,6.30
2022-09-23T06:03:35.835Z,7.90
2022-09-23T06:06:02.381Z,4.53
2022-09-23T06:08:28.888Z,5.88
2022-09-23T06:10:56.289Z,6.50
2022-09-23T06:13:22.749Z,5.93
2022-09-23T06:15:49.126Z,5.00
2022-09-23T06:18:15.636Z,5.87
2022-09-23T06:20:41.997Z,6.10
2022-09-23T06:23:11.464Z,6.22
2022-09-23T06:25:40.677Z,6.75
2022-09-23T06:28:10.744Z,5.40
2022-09-23T06:30:37.264Z,5.70
2022-09-23T06:33:03.661Z,4.78
2022-09-23T06:35:32.447Z,6.35
2022-09-23T06:37:59.180Z,4.40
2022-09-23T06:40:25.691Z,4.68
2022-09-23T06:42:59.728Z,7.87
2022-09-23T06:45:27.222Z,5.43
2022-09-23T06:47:58.237Z,5.38
2022-09-23T06:50:26.405Z,5.43
2022-09-23T06:52:56.802Z,11.05
2022-09-23T06:55:25.138Z,6.90
2022-09-23T06:57:51.526Z,11.15
2022-09-23T07:00:18.363Z,9.57
2022-09-23T07:02:44.972Z,6.75
2022-09-23T07:05:12.211Z,9.40
2022-09-23T07:07:39.335Z,10.20
2022-09-23T07:10:06.613Z,7.90
2022-09-23T07:12:33.990Z,10.23
2022-09-23T07:15:00.511Z,10.27
2022-09-23T07:17:27.679Z,10.82
2022-09-23T07:19:55.064Z,13.37
2022-09-23T07:22:25.656Z,15.07
2022-09-23T07:24:56.004Z,11.43
2022-09-23T07:27:27.083Z,12.27
2022-09-23T07:29:54.791Z,9.88
2022-09-23T07:32:22.846Z,9.37
2022-09-23T07:34:49.936Z,10.05
2022-09-23T07:37:17.794Z,10.25
2022-09-23T07:39:45.480Z,8.35
2022-09-23T07:42:13.184Z,15.98
2022-09-23T07:44:43.210Z,15.50
2022-09-23T07:47:09.779Z,9.05
2022-09-23T07:49:36.644Z,10.38
2022-09-23T07:52:04.878Z,9.68
2022-09-23T07:54:31.826Z,8.00
2022-09-23T07:56:59.468Z,8.63
2022-09-23T07:59:26.951Z,9.93
2022-09-23T08:01:54.771Z,7.82
2022-09-23T08:04:30.531Z,13.55
2022-09-23T08:07:03.137Z,8.75
2022-09-23T08:09:33.504Z,9.30
2022-09-23T08:12:01.107Z,7.57
2022-09-23T08:14:27.513Z,11.15
2022-09-23T08:16:54.140Z,11.85
2022-09-23T08:19:20.779Z,13.35
2022-09-23T08:21:47.527Z,9.07
2022-09-23T08:24:16.930Z,7.60
2022-09-23T08:26:45.044Z,10.65
2022-09-23T08:29:16.615Z,7.13
2022-09-23T08:31:43.664Z,6.93
2022-09-23T08:34:10.988Z,9.07
2022-09-23T08:36:38.099Z,7.60
2022-09-23T08:39:05.944Z,6.72
2022-09-23T08:42:02.172Z,7.00
2022-09-23T08:44:50.861Z,6.38
2022-09-23T08:47:20.462Z,7.63
2022-09-23T08:50:06.028Z,5.53
2022-09-23T08:52:42.955Z,5.90
2022-09-23T08:55:14.976Z,5.75
2022-09-23T08:58:25.539Z,5.53
2022-09-23T09:01:22.883Z,5.57
2022-09-23T09:03:51.937Z,6.07
2022-09-23T09:06:51.852Z,8.00
2022-09-23T09:09:25.598Z,6.55
2022-09-23T09:12:03.915Z,8.23
2022-09-23T09:14:37.993Z,6.00
2022-09-23T09:17:13.937Z,6.88
2022-09-23T09:19:53.515Z,5.63
2022-09-23T09:22:41.971Z,6.80
2022-09-23T09:25:24.190Z,8.02
2022-09-23T09:27:52.517Z,7.23
2022-09-23T09:30:19.727Z,5.68
2022-09-23T09:32:59.158Z,6.68
2022-09-23T09:35:37.833Z,7.63
2022-09-23T09:38:06.796Z,5.85
2022-09-23T09:40:35.053Z,7.33
2022-09-23T09:43:05.711Z,7.40
2022-09-23T09:46:01.525Z,7.28
2022-09-23T09:48:38.684Z,6.20
2022-09-23T09:51:25.228Z,8.00
2022-09-23T09:53:52.728Z,5.77
2022-09-23T09:56:32.723Z,7.97
2022-09-23T09:59:01.935Z,5.72
2022-09-23T10:01:33.029Z,7.22
2022-09-23T10:04:03.674Z,5.47
2022-09-23T10:06:32.987Z,6.67
2022-09-23T10:09:04.373Z,8.82
2022-09-23T10:11:32.328Z,6.40
2022-09-23T10:14:13.470Z,5.85
2022-09-23T10:16:41.683Z,8.38
2022-09-23T10:19:28.578Z,7.80
2022-09-23T10:22:00.335Z,5.15
2022-09-23T10:24:30.450Z,10.52
2022-09-23T10:27:01.808Z,7.35
2022-09-23T10:29:39.831Z,7.65
2022-09-23T10:32:26.939Z,7.70
2022-09-23T10:34:57.115Z,5.90
2022-09-23T10:37:40.949Z,8.90
2022-09-23T10:40:45.740Z,5.95
2022-09-23T10:43:54.466Z,5.22
2022-09-23T10:46:41.299Z,5.53
2022-09-23T10:49:26.286Z,5.32
2022-09-23T10:52:18.183Z,9.80
2022-09-23T10:55:11.558Z,4.97
2022-09-23T10:57:57.670Z,5.50
2022-09-23T11:01:02.634Z,4.77
2022-09-23T11:03:38.569Z,5.38
2022-09-23T11:06:35.663Z,5.53
2022-09-23T11:09:24.276Z,6.10
2022-09-23T11:12:06.700Z,7.28
2022-09-23T11:14:38.885Z,8.70
2022-09-23T11:17:41.304Z,5.45
2022-09-23T11:20:09.395Z,7.03
2022-09-23T11:22:48.010Z,8.05
2022-09-23T11:25:34.422Z,5.50
2022-09-23T11:28:20.358Z,4.60
2022-09-23T11:31:28.277Z,8.50
2022-09-23T11:34:01.612Z,6.13
2022-09-23T11:36:34.836Z,5.10
2022-09-23T11:39:10.225Z,6.93
2022-09-23T11:41:39.548Z,4.60
2022-09-23T11:44:15.326Z,6.32
2022-09-23T11:46:54.572Z,4.78
2022-09-23T11:49:40.104Z,5.35
2022-09-23T11:52:19.596Z,8.57
2022-09-23T11:54:51.949Z,4.40
2022-09-23T11:57:45.502Z,4.90
2022-09-23T12:00:26.469Z,6.10
2022-09-23T12:03:18.408Z,3.58
2022-09-23T12:05:47.586Z,6.15
2022-09-23T12:08:29.253Z,4.13
2022-09-23T12:10:58.644Z,4.57
2022-09-23T12:13:43.959Z,5.05
2022-09-23T12:16:43.840Z,3.85
2022-09-23T12:19:47.311Z,5.75
2022-09-23T12:22:54.408Z,3.63
2022-09-23T12:25:46.509Z,3.88
2022-09-23T12:28:20.925Z,5.97
2022-09-23T12:30:49.796Z,3.47
2022-09-23T12:33:38.892Z,2.70
2022-09-23T12:36:08.262Z,5.53
2022-09-23T12:38:38.176Z,2.70
2022-09-23T12:41:23.910Z,4.65
2022-09-23T12:43:57.603Z,3.05
2022-09-23T12:46:27.787Z,9.00
2022-09-23T12:48:57.239Z,4.57
2022-09-23T12:51:25.861Z,4.72
2022-09-23T12:53:59.636Z,2.95
2022-09-23T12:56:51.739Z,4.63
2022-09-23T12:59:27.582Z,3.05
2022-09-23T13:01:55.272Z,5.43
2022-09-23T13:05:00.122Z,4.75
2022-09-23T13:07:31.038Z,4.03
2022-09-23T13:10:18.616Z,4.45
2022-09-23T13:12:47.258Z,3.70
2022-09-23T13:15:30.141Z,4.33
2022-09-23T13:18:18.376Z,3.50
2022-09-23T13:20:46.924Z,4.55
2022-09-23T13:23:29.191Z,6.70
2022-09-23T13:26:10.680Z,3.72
2022-09-23T13:28:58.543Z,5.30
2022-09-23T13:31:25.459Z,4.45
2022-09-23T13:34:01.131Z,7.80
2022-09-23T13:36:27.563Z,3.50
2022-09-23T13:39:13.932Z,2.95
2022-09-23T13:41:42.223Z,4.63
2022-09-23T13:44:20.316Z,4.43
2022-09-23T13:46:53.572Z,5.30
2022-09-23T13:49:22.181Z,5.32
2022-09-23T13:51:48.561Z,6.97
2022-09-23T13:54:32.086Z,3.90
2022-09-23T13:56:58.766Z,3.30
2022-09-23T13:59:30.171Z,4.20
2022-09-23T14:02:11.311Z,4.97
2022-09-23T14:04:38.348Z,3.03
2022-09-23T14:07:10.965Z,5.37
2022-09-23T14:09:46.035Z,3.35
2022-09-23T14:12:13.197Z,3.15
2022-09-23T14:14:42.150Z,3.00
2022-09-23T14:17:10.233Z,7.63
2022-09-23T14:19:37.101Z,2.10
2022-09-23T14:22:03.801Z,4.60
2022-09-23T14:24:33.442Z,4.60
2022-09-23T14:27:32.881Z,6.38
2022-09-23T14:30:02.590Z,4.03
2022-09-23T14:32:30.055Z,3.10
2022-09-23T14:35:06.651Z,4.43
2022-09-23T14:37:55.007Z,5.88
2022-09-23T14:40:32.759Z,5.10
2022-09-23T14:43:06.279Z,3.63
2022-09-23T14:45:35.674Z,3.93
2022-09-23T14:48:07.308Z,5.15
2022-09-23T14:50:39.402Z,3.95
2022-09-23T14:53:26.942Z,5.07
2022-09-23T14:56:08.176Z,5.53
2022-09-23T14:58:52.054Z,6.27
2022-09-23T15:01:39.737Z,7.72
2022-09-23T15:04:11.016Z,4.72
2022-09-23T15:06:39.549Z,7.32
2022-09-23T15:09:09.306Z,5.60
2022-09-23T15:11:36.149Z,9.17
2022-09-23T15:14:33.194Z,6.93
2022-09-23T15:16:50.150Z,8.88
2022-09-23T15:19:19.981Z,4.43
2022-09-23T15:21:47.072Z,6.72
2022-09-23T15:24:36.103Z,6.23
2022-09-23T15:27:09.437Z,5.28
2022-09-23T15:29:37.369Z,8.27
2022-09-23T15:32:03.840Z,12.45
2022-09-23T15:34:31.886Z,5.30
2022-09-23T15:36:58.454Z,8.30
2022-09-23T15:39:35.508Z,6.03
2022-09-23T15:42:02.526Z,7.63
2022-09-23T15:44:29.858Z,8.85
2022-09-23T15:47:00.107Z,9.07
2022-09-23T15:49:34.140Z,7.43
2022-09-23T15:52:02.393Z,9.32
2022-09-23T15:54:29.682Z,6.25
2022-09-23T15:57:00.549Z,10.13
2022-09-23T15:59:28.648Z,6.22
2022-09-23T16:01:56.863Z,9.33
2022-09-23T16:04:23.666Z,7.28
2022-09-23T16:06:50.406Z,14.18
2022-09-23T16:09:16.814Z,7.40
2022-09-23T16:11:46.041Z,10.85
2022-09-23T16:14:19.151Z,9.10
2022-09-23T16:16:47.985Z,6.85
2022-09-23T16:19:16.178Z,6.38
2022-09-23T16:21:43.281Z,5.38
2022-09-23T16:24:16.856Z,9.98
2022-09-23T16:26:44.385Z,8.03
2022-09-23T16:29:11.752Z,11.68
2022-09-23T16:31:38.608Z,8.20
2022-09-23T16:34:05.681Z,11.23
2022-09-23T16:36:34.105Z,8.88
2022-09-23T16:39:04.142Z,8.63
2022-09-23T16:41:34.422Z,7.63
2022-09-23T16:44:02.589Z,6.97
2022-09-23T16:46:29.669Z,8.18
2022-09-23T16:48:57.719Z,7.60
2022-09-23T16:51:40.272Z,7.43
2022-09-23T16:54:11.521Z,8.80
2022-09-23T16:56:44.425Z,8.75
2022-09-23T16:59:12.829Z,8.65
2022-09-23T17:01:57.927Z,15.18
2022-09-23T17:04:24.415Z,11.53
2022-09-23T17:06:52.507Z,12.70
2022-09-23T17:09:21.084Z,9.52
2022-09-23T17:11:56.445Z,8.70
2022-09-23T17:14:23.073Z,9.68
2022-09-23T17:16:49.646Z,9.73
2022-09-23T17:19:16.163Z,18.02
2022-09-23T17:21:42.702Z,9.82
2022-09-23T17:24:09.816Z,16.45
2022-09-23T17:26:36.188Z,11.50
2022-09-23T17:29:02.667Z,28.53
2022-09-23T17:31:30.716Z,16.02
2022-09-23T17:33:57.274Z,20.98
2022-09-23T17:36:23.890Z,14.52
2022-09-23T17:38:53.553Z,15.15
2022-09-23T17:41:20.712Z,14.73
2022-09-23T17:43:48.507Z,22.80
2022-09-23T17:46:18.806Z,15.15
2022-09-23T17:48:46.901Z,41.38
2022-09-23T17:51:15.751Z,50.47
2022-09-23T17:53:45.223Z,48.63
2022-09-23T17:56:17.686Z,26.48
2022-09-23T17:58:45.213Z,14.88
2022-09-23T18:01:14.497Z,15.35
2022-09-23T18:03:44.244Z,13.98
2022-09-23T18:06:10.788Z,12.60
2022-09-23T18:08:37.742Z,12.50
2022-09-23T18:11:26.925Z,13.52
2022-09-23T18:14:05.460Z,17.60
2022-09-23T18:16:36.078Z,12.38
2022-09-23T18:19:04.526Z,15.47
2022-09-23T18:21:33.452Z,14.55
2022-09-23T18:26:47.537Z,17.27
2022-09-23T18:29:15.753Z,11.38
2022-09-23T18:31:44.408Z,22.97
2022-09-23T18:34:12.914Z,17.08
2022-09-23T18:36:40.060Z,13.30
2022-09-23T18:39:07.059Z,15.65
2022-09-23T18:41:34.307Z,17.65
2022-09-23T18:44:01.444Z,15.57
2022-09-23T18:46:29.643Z,16.10
2022-09-23T18:49:15.230Z,18.35
2022-09-23T18:52:08.042Z,16.42
2022-09-23T18:54:34.586Z,17.02
2022-09-23T18:57:01.358Z,20.00
2022-09-23T18:59:29.646Z,21.05
2022-09-23T19:01:57.132Z,19.13
2022-09-23T19:04:25.403Z,18.45
2022-09-23T19:06:53.561Z,18.38
2022-09-23T19:09:19.904Z,22.33
2022-09-23T19:11:46.639Z,18.25
2022-09-23T19:14:13.776Z,19.85
2022-09-23T19:16:40.992Z,20.42
2022-09-23T19:19:08.151Z,18.80
2022-09-23T19:21:35.178Z,16.33
2022-09-23T19:24:04.510Z,16.85
2022-09-23T19:26:39.641Z,23.23
2022-09-23T19:29:13.065Z,19.83
2022-09-23T19:31:40.883Z,18.52
2022-09-23T19:34:19.262Z,22.07
2022-09-23T19:36:47.731Z,19.25
2022-09-23T19:39:18.520Z,21.15
2022-09-23T19:41:46.029Z,22.05
2022-09-23T19:44:13.073Z,22.63
2022-09-23T19:46:42.853Z,20.37
2022-09-23T19:49:10.437Z,21.02
2022-09-23T19:51:38.652Z,24.63
2022-09-23T19:54:07.360Z,23.40
2022-09-23T19:56:34.515Z,29.48
2022-09-23T19:59:02.942Z,23.07
2022-09-23T20:01:30.694Z,20.17
2022-09-23T20:03:57.112Z,17.23
2022-09-23T20:06:23.663Z,20.17
2022-09-23T20:08:50.207Z,21.02
2022-09-23T20:11:18.050Z,23.33
2022-09-23T20:13:48.819Z,25.20
2022-09-23T20:16:19.780Z,18.75
2022-09-23T20:18:51.523Z,24.33
2022-09-23T20:21:18.291Z,19.52
2022-09-23T20:23:44.908Z,24.87
2022-09-23T20:26:29.609Z,25.45
2022-09-23T20:28:55.985Z,21.50
2022-09-23T20:31:23.333Z,20.10
2022-09-23T20:33:51.502Z,21.23
2022-09-23T20:36:17.960Z,26.77
2022-09-23T20:38:44.316Z,22.02
2022-09-23T20:41:10.836Z,21.90
2022-09-23T20:43:37.263Z,25.85
2022-09-23T20:46:05.311Z,24.13
2022-09-23T20:48:32.044Z,19.83
2022-09-23T20:51:02.882Z,24.65
2022-09-23T20:53:29.530Z,20.23
2022-09-23T20:55:58.282Z,19.27
2022-09-23T20:58:30.287Z,19.92
2022-09-23T21:01:04.454Z,21.10
2022-09-23T21:03:32.041Z,20.30
2022-09-23T21:06:05.910Z,21.33
2022-09-23T21:08:33.655Z,23.55
2022-09-23T21:11:05.004Z,22.08
2022-09-23T21:13:33.710Z,25.23
2022-09-23T21:16:09.988Z,23.38
2022-09-23T21:18:37.961Z,23.95
2022-09-23T21:21:05.936Z,22.58
2022-09-23T21:23:38.551Z,24.00
2022-09-23T21:26:13.852Z,21.03
2022-09-23T21:28:45.741Z,23.17
2022-09-23T21:31:22.378Z,25.25
2022-09-23T21:33:53.381Z,22.33
2022-09-23T21:36:20.439Z,22.23
2022-09-23T21:38:46.977Z,23.00
2022-09-23T21:41:13.646Z,27.10
2022-09-23T21:43:40.592Z,29.00
2022-09-23T21:46:09.777Z,26.23
2022-09-23T21:48:41.067Z,24.98
2022-09-23T21:51:14.190Z,23.67
2022-09-23T21:53:42.206Z,23.95
2022-09-23T21:56:11.806Z,22.80
2022-09-23T21:58:39.645Z,24.55
2022-09-23T22:01:17.988Z,26.63
2022-09-23T22:03:49.993Z,19.67
2022-09-23T22:06:21.235Z,21.77
2022-09-23T22:08:50.158Z,25.60
2022-09-23T22:11:37.692Z,24.75
2022-09-23T22:14:07.201Z,20.38
2022-09-23T22:16:33.943Z,24.77
2022-09-23T22:19:07.012Z,22.77
2022-09-23T22:21:36.673Z,26.77
2022-09-23T22:24:04.968Z,23.85
2022-09-23T22:26:34.037Z,22.80
2022-09-23T22:29:19.080Z,24.10
2022-09-23T22:32:04.305Z,23.10
2022-09-23T22:34:49.197Z,26.38
2022-09-23T22:37:19.425Z,25.95
2022-09-23T22:39:46.354Z,28.23
2022-09-23T22:42:16.199Z,28.43
2022-09-23T22:44:42.836Z,26.10
2022-09-23T22:47:10.212Z,29.77
2022-09-23T22:49:37.209Z,25.70
2022-09-23T22:52:08.049Z,26.85
2022-09-23T22:54:35.438Z,24.00
2022-09-23T22:57:05.159Z,25.92
2022-09-23T22:59:31.565Z,27.85
2022-09-23T23:02:00.171Z,29.52
2022-09-23T23:04:27.126Z,25.63
2022-09-23T23:06:53.690Z,29.70
2022-09-23T23:09:20.217Z,29.50
2022-09-23T23:11:47.101Z,29.38
2022-09-23T23:14:16.344Z,30.17
2022-09-23T23:16:45.094Z,28.10
2022-09-23T23:19:13.996Z,28.87
2022-09-23T23:21:43.511Z,29.55
2022-09-23T23:24:18.458Z,29.50
2022-09-23T23:26:45.545Z,31.15
2022-09-23T23:29:13.563Z,29.40
2022-09-23T23:31:40.921Z,28.03
2022-09-23T23:34:11.947Z,38.10
2022-09-23T23:36:39.390Z,36.25
2022-09-23T23:39:05.793Z,29.77
2022-09-23T23:41:32.186Z,30.17
2022-09-23T23:44:00.438Z,28.80
2022-09-23T23:46:29.146Z,30.45
2022-09-23T23:48:56.814Z,30.13
2022-09-23T23:51:26.277Z,31.58
2022-09-23T23:53:53.923Z,31.13
2022-09-23T23:56:24.927Z,29.20
2022-09-23T23:58:59.729Z,27.90
